Terminal Aerodrome Forecast
Issued by NWS Brownsville, TX

Home | Current Version | Previous Version | Text Only | Print | Product List | Glossary On
Versions: 1 2 3 4 5 6 7 8 9 10 11 12 13 14 15 16 17 18 19
000
FTUS44 KBRO 221100
TAFHRL
TAF
KHRL 221132Z 2212/2312 05005KT P6SM VCSH BKN025 BKN050 OVC150
      TEMPO 2212/2214 6SM -RA BKN025
     FM221500 07015KT P6SM VCSH SCT030 BKN060
     FM230200 06006KT P6SM SCT030 BKN060
     FM230600 04005KT P6SM FEW150=

USA.gov is the U.S. government's official web portal to all federal, state and local government web resources and services.